Weather at Campo Fontenelle

Public forecast

Using degrees Celsius for public forecast. Weather courtesy of forecast.io.

Current aviation weather report (METAR) for Campo Fontenelle

Retrieved 2021/01/16 23:00 UTC (22 minutes ago):

SBYS 162300Z VRB01KT 9999 FEW030 BKN100 22/21 Q1013

Aviation forecast (TAF) for Campo Fontenelle

Retrieved 2021/01/16 18:27 UTC (5 hours ago):

TAF SBYS 161500Z 1618/1706 01007KT 9999 BKN030 FEW040TCU TX29/1618Z TN23/1705Z TEMPO 1618/1622 8000 TSRA BKN030 FEW040CB BECMG 1623/1701 SCT025 RMK PEL